Time;durP1;ratioP1;P1;durP2;ratioP2;P2;SDS_P1;SDS_P2;PMS_P1;PMS_P2;Temp;Humidity;BMP_temperature;BMP_pressure;BME280_temperature;BME280_humidity;BME280_pressure;Samples;Min_cycle;Max_cycle;Signal;HPM_P1;HPM_P2
2024/04/13 00:00:00;;;;;;;8.00;7.90;;;;;;;;;;5451906;26;20480;-69
2024/04/13 00:02:26;;;;;;;8.17;8.07;;;;;;;;;;5461196;26;20807;-69
2024/04/13 00:04:55;;;;;;;8.03;7.93;;;;;;;;;;5452904;26;20637;-69
2024/04/13 00:07:24;;;;;;;7.33;7.23;;;;;;;;;;5457563;26;20476;-69
2024/04/13 00:09:53;;;;;;;7.27;7.17;;;;;;;;;;5455649;25;20483;-69
2024/04/13 00:12:20;;;;;;;7.37;7.27;;;;;;;;;;5450792;26;20471;-69
2024/04/13 00:14:51;;;;;;;7.60;7.50;;;;;;;;;;5455356;26;21012;-69
2024/04/13 00:17:18;;;;;;;7.50;7.40;;;;;;;;;;5453638;25;20821;-69
2024/04/13 00:19:49;;;;;;;7.00;6.90;;;;;;;;;;5458547;26;20460;-69
2024/04/13 00:22:17;;;;;;;7.20;7.10;;;;;;;;;;5461315;26;20570;-69
2024/04/13 00:24:46;;;;;;;7.30;7.20;;;;;;;;;;5463171;26;20566;-69
2024/04/13 00:27:13;;;;;;;6.73;6.63;;;;;;;;;;5459692;26;20554;-69
2024/04/13 00:29:42;;;;;;;6.80;6.70;;;;;;;;;;5462880;25;20536;-68
2024/04/13 00:32:11;;;;;;;6.57;6.47;;;;;;;;;;5458318;26;20470;-69
2024/04/13 00:34:39;;;;;;;6.03;5.93;;;;;;;;;;5459167;25;21660;-68
2024/04/13 00:37:06;;;;;;;6.03;5.93;;;;;;;;;;5461681;26;20482;-69
2024/04/13 00:39:35;;;;;;;6.30;6.20;;;;;;;;;;5460192;25;20484;-70
2024/04/13 00:42:01;;;;;;;5.77;5.67;;;;;;;;;;5456644;26;20613;-68
2024/04/13 00:44:30;;;;;;;5.63;5.53;;;;;;;;;;5459240;26;21384;-68
2024/04/13 00:47:05;;;;;;;5.60;5.50;;;;;;;;;;5460966;26;20985;-69
2024/04/13 00:49:37;;;;;;;5.50;5.40;;;;;;;;;;5458605;26;20588;-69
2024/04/13 00:52:04;;;;;;;5.47;5.37;;;;;;;;;;5458724;26;20519;-70
2024/04/13 00:54:34;;;;;;;5.43;5.33;;;;;;;;;;5462836;25;20466;-70
2024/04/13 00:57:02;;;;;;;5.10;5.10;;;;;;;;;;5468813;26;20601;-70
2024/04/13 00:59:31;;;;;;;5.70;5.60;;;;;;;;;;5510062;26;20482;-71
2024/04/13 01:01:59;;;;;;;5.57;5.47;;;;;;;;;;5510579;26;20543;-69
2024/04/13 01:04:29;;;;;;;5.40;5.30;;;;;;;;;;5505812;25;20564;-69
2024/04/13 01:06:58;;;;;;;5.00;5.00;;;;;;;;;;5517108;25;20520;-71
2024/04/13 01:09:27;;;;;;;5.43;5.33;;;;;;;;;;5515681;26;20484;-70
2024/04/13 01:11:54;;;;;;;5.60;5.50;;;;;;;;;;5512106;26;20532;-71
2024/04/13 01:14:23;;;;;;;5.33;5.23;;;;;;;;;;5510738;26;20563;-69
2024/04/13 01:16:49;;;;;;;5.17;5.10;;;;;;;;;;5513985;25;20575;-71
2024/04/13 01:19:18;;;;;;;5.67;5.57;;;;;;;;;;5499520;26;20482;-69
2024/04/13 01:21:44;;;;;;;5.60;5.50;;;;;;;;;;5501328;26;20516;-70
2024/04/13 01:24:16;;;;;;;5.57;5.47;;;;;;;;;;5509159;25;20520;-70
2024/04/13 01:26:42;;;;;;;5.60;5.50;;;;;;;;;;5507555;26;20539;-70
2024/04/13 01:29:11;;;;;;;5.43;5.33;;;;;;;;;;5512777;26;20498;-69
2024/04/13 01:31:38;;;;;;;4.70;4.70;;;;;;;;;;5506150;25;20489;-69
2024/04/13 01:34:07;;;;;;;5.40;5.30;;;;;;;;;;5513547;26;20576;-69
2024/04/13 01:36:35;;;;;;;5.70;5.60;;;;;;;;;;5518596;26;20462;-70
2024/04/13 01:39:07;;;;;;;5.50;5.40;;;;;;;;;;5504516;26;20550;-70
2024/04/13 01:41:39;;;;;;;5.37;5.27;;;;;;;;;;5500828;26;20911;-69
2024/04/13 01:44:09;;;;;;;5.20;5.13;;;;;;;;;;5515290;26;20957;-69
2024/04/13 01:46:36;;;;;;;4.80;4.80;;;;;;;;;;5495153;26;20455;-69
2024/04/13 01:49:05;;;;;;;5.30;5.20;;;;;;;;;;5512213;26;20512;-71
2024/04/13 01:51:31;;;;;;;5.07;5.03;;;;;;;;;;5500015;26;20533;-71
2024/04/13 01:54:01;;;;;;;4.90;4.90;;;;;;;;;;5515819;26;20532;-69
2024/04/13 01:56:27;;;;;;;5.30;5.20;;;;;;;;;;5495469;26;20750;-71
2024/04/13 01:59:00;;;;;;;4.70;4.70;;;;;;;;;;5496638;26;20802;-69
2024/04/13 02:01:27;;;;;;;5.57;5.47;;;;;;;;;;5501179;25;20483;-69
2024/04/13 02:03:56;;;;;;;5.67;5.57;;;;;;;;;;5515596;26;20477;-69
2024/04/13 02:06:23;;;;;;;5.23;5.13;;;;;;;;;;5510173;26;20555;-69
2024/04/13 02:08:53;;;;;;;5.47;5.37;;;;;;;;;;5515123;26;20501;-69
2024/04/13 02:11:19;;;;;;;5.23;5.13;;;;;;;;;;5500868;26;20526;-70
2024/04/13 02:13:48;;;;;;;5.33;5.23;;;;;;;;;;5501203;26;20542;-69
2024/04/13 02:16:17;;;;;;;5.03;5.03;;;;;;;;;;5495853;26;20484;-70
2024/04/13 02:18:47;;;;;;;5.60;5.50;;;;;;;;;;5501173;26;20468;-70
2024/04/13 02:21:13;;;;;;;5.53;5.43;;;;;;;;;;5498283;26;20537;-69
2024/04/13 02:23:42;;;;;;;5.10;5.03;;;;;;;;;;5516071;26;20978;-70
2024/04/13 02:26:09;;;;;;;5.30;5.20;;;;;;;;;;5509509;26;20917;-69
2024/04/13 02:28:39;;;;;;;5.30;5.20;;;;;;;;;;5498958;26;20574;-69
2024/04/13 02:31:05;;;;;;;5.23;5.13;;;;;;;;;;5518222;25;20950;-70
2024/04/13 02:33:36;;;;;;;5.57;5.47;;;;;;;;;;5499379;26;20588;-69
2024/04/13 02:36:03;;;;;;;5.50;5.40;;;;;;;;;;5515287;26;20466;-69
2024/04/13 02:38:32;;;;;;;5.00;5.00;;;;;;;;;;5499566;25;20465;-69
2024/04/13 02:41:00;;;;;;;5.07;5.03;;;;;;;;;;5501867;26;20466;-70
2024/04/13 02:43:30;;;;;;;4.90;4.90;;;;;;;;;;5500567;26;20560;-69
2024/04/13 02:45:57;;;;;;;5.00;5.00;;;;;;;;;;5516473;26;20514;-71
2024/04/13 02:48:27;;;;;;;5.37;5.27;;;;;;;;;;5495960;26;20462;-69
2024/04/13 02:53:39;;;;;;;5.40;5.30;;;;;;;;;;5510528;26;20444;-71
2024/04/13 02:56:06;;;;;;;5.17;5.07;;;;;;;;;;5508779;26;20988;-70
2024/04/13 02:58:37;;;;;;;5.40;5.30;;;;;;;;;;5505884;26;20465;-70
2024/04/13 03:01:04;;;;;;;5.50;5.40;;;;;;;;;;5505594;26;20891;-69
2024/04/13 03:03:32;;;;;;;5.20;5.10;;;;;;;;;;5514225;26;20472;-71
2024/04/13 03:06:02;;;;;;;5.43;5.33;;;;;;;;;;5499473;26;20545;-71
2024/04/13 03:08:31;;;;;;;5.30;5.20;;;;;;;;;;5510884;25;20503;-69
2024/04/13 03:10:58;;;;;;;4.97;4.97;;;;;;;;;;5514374;26;20582;-70
2024/04/13 03:13:27;;;;;;;5.30;5.20;;;;;;;;;;5511767;26;20449;-69
2024/04/13 03:15:59;;;;;;;5.33;5.23;;;;;;;;;;5496497;25;20963;-69
2024/04/13 03:18:29;;;;;;;5.90;5.80;;;;;;;;;;5513554;26;20464;-71
2024/04/13 03:20:56;;;;;;;5.53;5.43;;;;;;;;;;5511775;25;20586;-69
2024/04/13 03:23:28;;;;;;;6.27;6.17;;;;;;;;;;5518218;26;20859;-69
2024/04/13 03:25:54;;;;;;;6.03;5.93;;;;;;;;;;5500130;26;20548;-69
2024/04/13 03:28:26;;;;;;;5.87;5.77;;;;;;;;;;5509169;25;20512;-69
2024/04/13 03:30:52;;;;;;;6.07;5.97;;;;;;;;;;5511973;26;20721;-69
2024/04/13 03:33:21;;;;;;;6.53;6.43;;;;;;;;;;5507323;26;20477;-69
2024/04/13 03:35:48;;;;;;;6.33;6.23;;;;;;;;;;5513193;26;20528;-71
2024/04/13 03:38:17;;;;;;;6.50;6.40;;;;;;;;;;5513054;26;20839;-70
2024/04/13 03:40:49;;;;;;;6.83;6.73;;;;;;;;;;5509263;26;20517;-69
2024/04/13 03:43:15;;;;;;;7.17;7.07;;;;;;;;;;5492645;26;20669;-70
2024/04/13 03:45:44;;;;;;;6.93;6.83;;;;;;;;;;5518052;26;20529;-69
2024/04/13 03:48:11;;;;;;;7.13;7.03;;;;;;;;;;5505572;25;20945;-66
2024/04/13 03:50:42;;;;;;;7.20;7.10;;;;;;;;;;5503087;26;20460;-67
2024/04/13 03:53:08;;;;;;;7.27;7.17;;;;;;;;;;5510295;26;20827;-67
2024/04/13 03:55:37;;;;;;;6.97;6.87;;;;;;;;;;5503098;26;20564;-68
2024/04/13 03:58:06;;;;;;;6.83;6.73;;;;;;;;;;5508763;26;21221;-68
2024/04/13 04:00:35;;;;;;;7.03;6.93;;;;;;;;;;5514272;25;20514;-68
2024/04/13 04:03:02;;;;;;;6.63;6.53;;;;;;;;;;5510331;25;20487;-70
2024/04/13 04:05:31;;;;;;;6.70;6.60;;;;;;;;;;5509754;26;20728;-70
2024/04/13 04:07:58;;;;;;;6.37;6.27;;;;;;;;;;5514326;26;20453;-68
2024/04/13 04:10:27;;;;;;;6.33;6.23;;;;;;;;;;5500867;26;21181;-68
2024/04/13 04:12:53;;;;;;;6.60;6.50;;;;;;;;;;5502912;25;20473;-70
2024/04/13 04:15:25;;;;;;;6.37;6.27;;;;;;;;;;5513615;26;20563;-68
2024/04/13 04:17:52;;;;;;;6.70;6.60;;;;;;;;;;5514860;26;20865;-67
2024/04/13 04:20:20;;;;;;;6.43;6.33;;;;;;;;;;5503371;26;20989;-68
2024/04/13 04:22:47;;;;;;;7.30;7.20;;;;;;;;;;5479219;26;20612;-69
2024/04/13 04:25:16;;;;;;;7.03;6.93;;;;;;;;;;5480486;26;20883;-69
2024/04/13 04:27:42;;;;;;;6.73;6.63;;;;;;;;;;5464111;26;20592;-69
2024/04/13 04:30:12;;;;;;;7.27;7.17;;;;;;;;;;5467758;26;20476;-69
2024/04/13 04:32:42;;;;;;;6.83;6.73;;;;;;;;;;5457278;26;21029;-68
2024/04/13 04:35:12;;;;;;;7.03;6.93;;;;;;;;;;5477603;26;20544;-68
2024/04/13 04:37:38;;;;;;;7.10;7.00;;;;;;;;;;5456326;26;20482;-70
2024/04/13 04:40:09;;;;;;;7.03;6.93;;;;;;;;;;5469245;26;20466;-68
2024/04/13 04:42:35;;;;;;;6.90;6.80;;;;;;;;;;5484867;26;20569;-70
2024/04/13 04:45:05;;;;;;;6.87;6.77;;;;;;;;;;5461605;26;20529;-69
2024/04/13 04:47:32;;;;;;;5.83;5.73;;;;;;;;;;5476399;26;20577;-68
2024/04/13 04:50:04;;;;;;;6.27;6.17;;;;;;;;;;5481793;26;20457;-69
2024/04/13 04:52:30;;;;;;;6.47;6.37;;;;;;;;;;5481315;26;20470;-68
2024/04/13 04:55:01;;;;;;;6.70;6.60;;;;;;;;;;5468635;26;20610;-69
2024/04/13 04:57:28;;;;;;;5.70;5.60;;;;;;;;;;5460896;26;20606;-68
2024/04/13 04:59:57;;;;;;;5.40;5.30;;;;;;;;;;5467433;26;20548;-69
2024/04/13 05:02:24;;;;;;;5.60;5.50;;;;;;;;;;5481926;26;20516;-67
2024/04/13 05:04:53;;;;;;;4.80;4.80;;;;;;;;;;5474000;26;21092;-68
2024/04/13 05:07:22;;;;;;;6.03;5.93;;;;;;;;;;5477085;26;20617;-68
2024/04/13 05:09:52;;;;;;;4.90;4.90;;;;;;;;;;5473858;26;20480;-68
2024/04/13 05:12:19;;;;;;;5.40;5.30;;;;;;;;;;5466987;26;20551;-68
2024/04/13 05:14:48;;;;;;;5.33;5.23;;;;;;;;;;5473157;26;20518;-68
2024/04/13 05:17:15;;;;;;;5.30;5.20;;;;;;;;;;5475610;26;20471;-69
2024/04/13 05:19:43;;;;;;;5.77;5.67;;;;;;;;;;5469663;26;20473;-68
2024/04/13 05:22:10;;;;;;;4.87;4.87;;;;;;;;;;5483665;26;20530;-69
2024/04/13 05:24:42;;;;;;;5.50;5.40;;;;;;;;;;5511302;26;21452;-70
2024/04/13 05:27:08;;;;;;;6.00;5.90;;;;;;;;;;5515594;25;20548;-68
2024/04/13 05:29:39;;;;;;;5.07;5.03;;;;;;;;;;5495655;26;20540;-68
2024/04/13 05:32:07;;;;;;;5.00;5.00;;;;;;;;;;5506824;26;20544;-68
2024/04/13 05:34:36;;;;;;;5.30;5.20;;;;;;;;;;5504043;26;20534;-69
2024/04/13 05:37:02;;;;;;;5.83;5.73;;;;;;;;;;5511452;26;20473;-69
2024/04/13 05:39:32;;;;;;;5.33;5.23;;;;;;;;;;5499695;26;20480;-69
2024/04/13 05:42:01;;;;;;;5.37;5.27;;;;;;;;;;5504274;26;20463;-69
2024/04/13 05:44:32;;;;;;;5.77;5.67;;;;;;;;;;5508040;26;20540;-69
2024/04/13 05:46:59;;;;;;;5.90;5.80;;;;;;;;;;5492312;26;20478;-68
2024/04/13 05:49:29;;;;;;;5.90;5.80;;;;;;;;;;5497618;25;20482;-68
2024/04/13 05:51:55;;;;;;;6.40;6.30;;;;;;;;;;5512809;26;20469;-68
2024/04/13 05:54:24;;;;;;;6.23;6.13;;;;;;;;;;5516340;26;21012;-69
2024/04/13 05:56:53;;;;;;;6.40;6.30;;;;;;;;;;5512201;26;20473;-68
2024/04/13 05:59:24;;;;;;;6.80;6.70;;;;;;;;;;5517242;26;20516;-70
2024/04/13 06:01:50;;;;;;;7.03;6.93;;;;;;;;;;5500583;26;20576;-68
2024/04/13 06:04:19;;;;;;;7.27;7.17;;;;;;;;;;5507388;26;20850;-70
2024/04/13 06:06:46;;;;;;;7.03;6.93;;;;;;;;;;5519126;26;20600;-68
2024/04/13 06:09:14;;;;;;;6.97;6.87;;;;;;;;;;5501008;25;20468;-69
2024/04/13 06:11:41;;;;;;;7.40;7.30;;;;;;;;;;5512070;26;20575;-68
2024/04/13 06:14:10;;;;;;;7.40;7.30;;;;;;;;;;5497465;26;20464;-69
2024/04/13 06:16:40;;;;;;;7.80;7.70;;;;;;;;;;5513174;25;20541;-69
2024/04/13 06:19:13;;;;;;;7.60;7.50;;;;;;;;;;5499047;26;20532;-68
2024/04/13 06:21:39;;;;;;;7.77;7.67;;;;;;;;;;5500381;26;20537;-69
2024/04/13 06:24:08;;;;;;;8.27;8.17;;;;;;;;;;5519191;25;20476;-69
2024/04/13 06:26:34;;;;;;;8.23;8.13;;;;;;;;;;5493471;26;20538;-69
2024/04/13 06:29:04;;;;;;;8.27;8.17;;;;;;;;;;5502720;26;20595;-68
2024/04/13 06:31:30;;;;;;;9.20;9.00;;;;;;;;;;5518316;26;20863;-70
2024/04/13 06:34:02;;;;;;;9.00;8.83;;;;;;;;;;5518964;26;20565;-70
2024/04/13 06:36:28;;;;;;;9.27;9.07;;;;;;;;;;5506718;25;21009;-68
2024/04/13 06:38:57;;;;;;;9.50;9.30;;;;;;;;;;5505163;26;20463;-68
2024/04/13 06:41:26;;;;;;;10.00;9.80;;;;;;;;;;5494280;25;20476;-68
2024/04/13 06:43:53;;;;;;;10.57;10.37;;;;;;;;;;5511621;25;20978;-69
2024/04/13 06:46:22;;;;;;;10.63;10.43;;;;;;;;;;5511612;26;20522;-70
2024/04/13 06:48:48;;;;;;;10.03;9.83;;;;;;;;;;5518512;26;20512;-68
2024/04/13 06:51:20;;;;;;;9.60;9.40;;;;;;;;;;5511111;26;20524;-68
2024/04/13 06:53:46;;;;;;;10.03;9.83;;;;;;;;;;5501749;26;20545;-68
2024/04/13 06:56:16;;;;;;;10.27;10.07;;;;;;;;;;5517929;26;20465;-69
2024/04/13 06:58:43;;;;;;;9.50;9.30;;;;;;;;;;5497414;26;21071;-67
2024/04/13 07:01:12;;;;;;;9.70;9.50;;;;;;;;;;5510006;26;20507;-68
2024/04/13 07:03:40;;;;;;;10.00;9.80;;;;;;;;;;5516208;26;20477;-68
2024/04/13 07:06:09;;;;;;;10.00;9.80;;;;;;;;;;5512783;26;20551;-70
2024/04/13 07:08:37;;;;;;;9.73;9.53;;;;;;;;;;5509070;26;20471;-69
2024/04/13 07:11:07;;;;;;;10.00;9.80;;;;;;;;;;5492999;26;20528;-68
2024/04/13 07:13:33;;;;;;;10.20;10.00;;;;;;;;;;5517996;26;20509;-68
2024/04/13 07:16:02;;;;;;;10.17;9.97;;;;;;;;;;5508581;26;20481;-67
2024/04/13 07:18:29;;;;;;;10.90;10.70;;;;;;;;;;5493368;26;20897;-68
2024/04/13 07:20:57;;;;;;;10.73;10.53;;;;;;;;;;5509312;25;21101;-68
2024/04/13 07:23:24;;;;;;;10.80;10.60;;;;;;;;;;5505145;26;20486;-68
2024/04/13 07:26:04;;;;;;;10.70;10.50;;;;;;;;;;5496996;25;20517;-68
2024/04/13 07:28:31;;;;;;;10.50;10.30;;;;;;;;;;5505164;26;20724;-68
2024/04/13 07:31:01;;;;;;;10.77;10.57;;;;;;;;;;5502514;26;20482;-68
2024/04/13 07:33:27;;;;;;;10.87;10.67;;;;;;;;;;5513426;26;20528;-69
2024/04/13 07:35:57;;;;;;;11.20;10.90;;;;;;;;;;5480583;26;20509;-69
2024/04/13 07:38:25;;;;;;;11.50;11.20;;;;;;;;;;5502775;26;21213;-68
2024/04/13 07:40:54;;;;;;;11.80;11.50;;;;;;;;;;5503360;26;20462;-69
2024/04/13 07:43:23;;;;;;;11.70;11.40;;;;;;;;;;5496114;26;20497;-69
2024/04/13 07:45:53;;;;;;;11.27;10.97;;;;;;;;;;5500510;25;20753;-69
2024/04/13 07:48:19;;;;;;;11.43;11.13;;;;;;;;;;5517220;26;20511;-70
2024/04/13 07:50:48;;;;;;;11.20;10.90;;;;;;;;;;5507188;25;20533;-68
2024/04/13 07:53:14;;;;;;;11.30;11.00;;;;;;;;;;5498115;25;20829;-69
2024/04/13 07:55:43;;;;;;;10.83;10.63;;;;;;;;;;5508131;26;20460;-68
2024/04/13 07:58:11;;;;;;;11.33;11.03;;;;;;;;;;5515191;25;20462;-69
2024/04/13 08:00:45;;;;;;;11.27;10.97;;;;;;;;;;5509644;26;21008;-69
2024/04/13 08:03:11;;;;;;;10.97;10.77;;;;;;;;;;5514210;26;20468;-68
2024/04/13 08:05:40;;;;;;;11.20;10.90;;;;;;;;;;5511305;26;20472;-68
2024/04/13 08:08:07;;;;;;;11.50;11.20;;;;;;;;;;5514588;25;20606;-68
2024/04/13 08:10:42;;;;;;;10.73;10.53;;;;;;;;;;5509297;26;20488;-68
2024/04/13 08:13:08;;;;;;;10.67;10.47;;;;;;;;;;5515693;26;20537;-69
2024/04/13 08:15:40;;;;;;;10.80;10.60;;;;;;;;;;5505069;26;20864;-69
2024/04/13 08:18:10;;;;;;;10.80;10.60;;;;;;;;;;5514310;25;20460;-68
2024/04/13 08:20:40;;;;;;;11.63;11.33;;;;;;;;;;5492779;26;20483;-70
2024/04/13 08:23:06;;;;;;;11.30;11.00;;;;;;;;;;5496364;26;20473;-69
2024/04/13 08:25:35;;;;;;;11.30;11.00;;;;;;;;;;5507813;26;20510;-68
2024/04/13 08:28:02;;;;;;;11.20;10.90;;;;;;;;;;5498003;26;20619;-69
2024/04/13 08:30:30;;;;;;;11.20;10.90;;;;;;;;;;5514008;26;20510;-68
2024/04/13 08:32:56;;;;;;;11.23;10.93;;;;;;;;;;5506217;26;20476;-69
2024/04/13 08:35:29;;;;;;;11.00;10.80;;;;;;;;;;5510642;26;20857;-70
2024/04/13 08:37:55;;;;;;;11.27;10.97;;;;;;;;;;5502502;26;20484;-69
2024/04/13 08:40:24;;;;;;;10.83;10.63;;;;;;;;;;5507268;25;20530;-69
2024/04/13 08:42:53;;;;;;;10.73;10.53;;;;;;;;;;5516053;25;20480;-68
2024/04/13 08:45:22;;;;;;;10.63;10.43;;;;;;;;;;5506734;26;20534;-69
2024/04/13 08:47:50;;;;;;;10.80;10.60;;;;;;;;;;5497518;25;20461;-69
2024/04/13 08:50:19;;;;;;;11.17;10.90;;;;;;;;;;5504414;26;20462;-68
2024/04/13 08:52:49;;;;;;;10.80;10.60;;;;;;;;;;5511563;26;21227;-68
2024/04/13 08:55:19;;;;;;;11.27;10.97;;;;;;;;;;5501515;26;20486;-68
2024/04/13 08:57:46;;;;;;;11.00;10.80;;;;;;;;;;5497169;26;20478;-70
2024/04/13 09:00:19;;;;;;;10.93;10.73;;;;;;;;;;5499046;26;20466;-69
2024/04/13 09:02:45;;;;;;;11.17;10.87;;;;;;;;;;5507293;26;20945;-69
2024/04/13 09:05:15;;;;;;;11.27;10.97;;;;;;;;;;5508980;25;20539;-69
2024/04/13 09:07:42;;;;;;;11.40;11.10;;;;;;;;;;5507145;25;20548;-69
2024/04/13 09:10:14;;;;;;;11.40;11.10;;;;;;;;;;5500678;26;20461;-70
2024/04/13 09:12:40;;;;;;;11.30;11.00;;;;;;;;;;5489098;26;20471;-70
2024/04/13 09:15:09;;;;;;;11.20;10.90;;;;;;;;;;5499539;26;20988;-69
2024/04/13 09:17:36;;;;;;;11.50;11.20;;;;;;;;;;5506288;25;20567;-69
2024/04/13 09:20:07;;;;;;;11.30;11.00;;;;;;;;;;5513438;25;20481;-69
2024/04/13 09:22:34;;;;;;;11.50;11.20;;;;;;;;;;5512827;25;21072;-69
2024/04/13 09:25:03;;;;;;;11.57;11.27;;;;;;;;;;5497284;26;20467;-69
2024/04/13 09:27:34;;;;;;;11.97;11.67;;;;;;;;;;5507263;25;20484;-69
2024/04/13 09:30:13;;;;;;;12.30;12.00;;;;;;;;;;5518692;26;20625;-69
2024/04/13 09:32:40;;;;;;;12.20;11.90;;;;;;;;;;5511088;25;20530;-69
2024/04/13 09:35:12;;;;;;;12.40;12.10;;;;;;;;;;5492221;26;20474;-69
2024/04/13 09:37:39;;;;;;;12.17;11.87;;;;;;;;;;5511158;25;20539;-70
2024/04/13 09:40:10;;;;;;;12.30;12.00;;;;;;;;;;5503976;25;20481;-70
2024/04/13 09:42:40;;;;;;;12.40;12.10;;;;;;;;;;5508736;26;20527;-70
2024/04/13 09:45:11;;;;;;;13.10;12.70;;;;;;;;;;5503314;25;20474;-70
2024/04/13 09:47:38;;;;;;;12.80;12.50;;;;;;;;;;5509279;26;20467;-70
2024/04/13 09:50:07;;;;;;;12.67;12.37;;;;;;;;;;5511208;25;20518;-69
2024/04/13 09:52:33;;;;;;;13.10;12.70;;;;;;;;;;5499534;26;20530;-70
2024/04/13 09:55:03;;;;;;;12.50;12.20;;;;;;;;;;5507699;26;20522;-70
2024/04/13 09:57:30;;;;;;;11.97;11.67;;;;;;;;;;5506019;26;20477;-70
2024/04/13 10:00:03;;;;;;;11.90;11.60;;;;;;;;;;5512571;25;20552;-69
2024/04/13 10:02:30;;;;;;;11.90;11.60;;;;;;;;;;5511143;26;20524;-69
2024/04/13 10:05:01;;;;;;;11.90;11.60;;;;;;;;;;5495545;26;21151;-70
2024/04/13 10:07:29;;;;;;;12.10;11.80;;;;;;;;;;5506618;26;20531;-70
2024/04/13 10:10:00;;;;;;;11.90;11.60;;;;;;;;;;5507508;25;20475;-70
2024/04/13 10:12:29;;;;;;;12.20;11.90;;;;;;;;;;5512790;25;20793;-70
2024/04/13 10:14:59;;;;;;;12.70;12.40;;;;;;;;;;5497074;25;20591;-70
2024/04/13 10:17:30;;;;;;;12.20;11.90;;;;;;;;;;5509714;26;20545;-70
2024/04/13 10:19:59;;;;;;;12.07;11.77;;;;;;;;;;5503657;26;20526;-70
2024/04/13 10:22:26;;;;;;;12.33;12.03;;;;;;;;;;5501007;26;20534;-69
2024/04/13 10:24:54;;;;;;;12.23;11.93;;;;;;;;;;5510947;25;20456;-70
2024/04/13 10:27:23;;;;;;;12.37;12.07;;;;;;;;;;5515454;25;20538;-70
2024/04/13 10:29:52;;;;;;;12.37;12.07;;;;;;;;;;5510742;26;20477;-70
2024/04/13 10:32:19;;;;;;;11.77;11.47;;;;;;;;;;5506263;25;20499;-70
2024/04/13 10:34:51;;;;;;;12.20;11.90;;;;;;;;;;5512204;26;20551;-69
2024/04/13 10:37:24;;;;;;;12.00;11.70;;;;;;;;;;5508906;26;20481;-70
2024/04/13 10:39:57;;;;;;;11.80;11.50;;;;;;;;;;5509753;25;20735;-70
2024/04/13 10:42:33;;;;;;;12.43;12.13;;;;;;;;;;5495264;26;20899;-70
2024/04/13 10:45:04;;;;;;;12.40;12.10;;;;;;;;;;5502605;25;20846;-70
2024/04/13 10:47:30;;;;;;;12.80;12.50;;;;;;;;;;5510632;26;20577;-71
2024/04/13 10:50:02;;;;;;;13.03;12.70;;;;;;;;;;5508147;26;20582;-71
2024/04/13 10:52:29;;;;;;;13.47;13.07;;;;;;;;;;5502029;26;20874;-69
2024/04/13 10:55:00;;;;;;;13.23;12.83;;;;;;;;;;5510215;25;20457;-69
2024/04/13 10:57:27;;;;;;;12.63;12.33;;;;;;;;;;5501745;25;20899;-69
2024/04/13 10:59:56;;;;;;;12.90;12.60;;;;;;;;;;5502997;25;20488;-70
2024/04/13 11:02:22;;;;;;;13.33;12.93;;;;;;;;;;5517108;25;20950;-69
2024/04/13 11:04:51;;;;;;;13.67;13.27;;;;;;;;;;5518628;25;20503;-69
2024/04/13 11:07:21;;;;;;;13.60;13.20;;;;;;;;;;5498452;25;20589;-70
2024/04/13 11:09:51;;;;;;;13.43;13.03;;;;;;;;;;5503238;26;20484;-69
2024/04/13 11:12:18;;;;;;;12.63;12.33;;;;;;;;;;5500689;26;20528;-70
2024/04/13 11:14:47;;;;;;;13.23;12.83;;;;;;;;;;5504996;26;20608;-70
2024/04/13 11:17:13;;;;;;;13.03;12.67;;;;;;;;;;5508039;25;20464;-70
2024/04/13 11:22:28;;;;;;;13.77;13.37;;;;;;;;;;5510525;26;20472;-69
2024/04/13 11:24:54;;;;;;;13.67;13.27;;;;;;;;;;5507824;26;20462;-70
2024/04/13 11:27:24;;;;;;;13.77;13.37;;;;;;;;;;5504991;26;20480;-70
2024/04/13 11:29:51;;;;;;;12.80;12.50;;;;;;;;;;5507276;26;21291;-70
2024/04/13 11:32:21;;;;;;;13.70;13.30;;;;;;;;;;5502863;25;20488;-70
2024/04/13 11:34:47;;;;;;;13.80;13.40;;;;;;;;;;5508233;26;20536;-70
2024/04/13 11:37:17;;;;;;;13.20;12.80;;;;;;;;;;5504066;25;20528;-70
2024/04/13 11:39:46;;;;;;;13.77;13.37;;;;;;;;;;5506759;26;20477;-70
2024/04/13 11:42:15;;;;;;;13.77;13.37;;;;;;;;;;5514951;25;20881;-70
2024/04/13 11:44:41;;;;;;;13.40;13.00;;;;;;;;;;5512555;26;20532;-69
2024/04/13 11:47:11;;;;;;;14.60;14.20;;;;;;;;;;5521842;26;20907;-70
2024/04/13 11:49:38;;;;;;;14.03;13.63;;;;;;;;;;5506742;26;20929;-70
2024/04/13 11:52:07;;;;;;;14.60;14.20;;;;;;;;;;5508803;26;20557;-70
2024/04/13 11:54:33;;;;;;;13.57;13.17;;;;;;;;;;5510342;26;20468;-70
2024/04/13 11:57:05;;;;;;;13.83;13.43;;;;;;;;;;5510432;26;20473;-70
2024/04/13 11:59:31;;;;;;;13.80;13.40;;;;;;;;;;5507204;26;20503;-70
2024/04/13 12:02:00;;;;;;;13.70;13.30;;;;;;;;;;5521098;26;20528;-70
2024/04/13 12:04:26;;;;;;;13.83;13.43;;;;;;;;;;5516494;26;20911;-70
2024/04/13 12:06:55;;;;;;;13.90;13.50;;;;;;;;;;5498914;26;20473;-72
2024/04/13 12:09:21;;;;;;;13.73;13.33;;;;;;;;;;5488941;26;20537;-71
2024/04/13 12:11:50;;;;;;;13.60;13.20;;;;;;;;;;5517899;26;20464;-71
2024/04/13 12:14:21;;;;;;;14.00;13.60;;;;;;;;;;5508331;26;20531;-72
2024/04/13 12:16:50;;;;;;;14.20;13.80;;;;;;;;;;5513744;25;20591;-72
2024/04/13 12:19:16;;;;;;;14.20;13.80;;;;;;;;;;5505028;26;20524;-72
2024/04/13 12:21:45;;;;;;;14.60;14.17;;;;;;;;;;5515377;25;20529;-72
2024/04/13 12:24:12;;;;;;;14.70;14.27;;;;;;;;;;5484228;26;20581;-70
2024/04/13 12:26:41;;;;;;;14.13;13.73;;;;;;;;;;5480529;26;20519;-70
2024/04/13 12:29:08;;;;;;;14.33;13.93;;;;;;;;;;5466857;26;20520;-69
2024/04/13 12:31:40;;;;;;;14.40;14.00;;;;;;;;;;5461773;26;20520;-71
2024/04/13 12:34:07;;;;;;;14.10;13.70;;;;;;;;;;5482765;26;20511;-70
2024/04/13 12:36:37;;;;;;;14.60;14.20;;;;;;;;;;5484472;26;20541;-71
2024/04/13 12:39:04;;;;;;;15.20;14.70;;;;;;;;;;5484485;26;21135;-71
2024/04/13 12:41:33;;;;;;;14.80;14.30;;;;;;;;;;5467590;26;20477;-71
2024/04/13 12:43:59;;;;;;;14.00;13.60;;;;;;;;;;5476261;26;20591;-71
2024/04/13 12:46:28;;;;;;;14.53;14.10;;;;;;;;;;5474491;26;20474;-71
2024/04/13 12:48:59;;;;;;;14.37;13.97;;;;;;;;;;5482930;26;20458;-71
2024/04/13 12:51:28;;;;;;;14.23;13.83;;;;;;;;;;5477938;26;20628;-71
2024/04/13 12:53:54;;;;;;;13.90;13.50;;;;;;;;;;5470271;26;20482;-71
2024/04/13 12:56:24;;;;;;;14.23;13.83;;;;;;;;;;5473532;26;21086;-71
2024/04/13 12:58:50;;;;;;;13.57;13.17;;;;;;;;;;5473116;26;21741;-70
2024/04/13 13:01:19;;;;;;;14.40;14.00;;;;;;;;;;5489925;26;21085;-71
2024/04/13 13:03:45;;;;;;;14.40;14.00;;;;;;;;;;5465500;26;20478;-71
2024/04/13 13:06:17;;;;;;;14.90;14.40;;;;;;;;;;5460653;26;20854;-71
2024/04/13 13:08:43;;;;;;;14.80;14.30;;;;;;;;;;5480911;26;20530;-71
2024/04/13 13:11:12;;;;;;;14.30;13.90;;;;;;;;;;5469069;26;20477;-71
2024/04/13 13:13:38;;;;;;;13.90;13.50;;;;;;;;;;5480394;26;21134;-71
2024/04/13 13:16:08;;;;;;;14.13;13.73;;;;;;;;;;5472481;26;20473;-71
2024/04/13 13:18:35;;;;;;;14.67;14.27;;;;;;;;;;5467196;26;20473;-71
2024/04/13 13:21:04;;;;;;;14.40;14.00;;;;;;;;;;5478380;26;20501;-71
2024/04/13 13:23:33;;;;;;;14.40;14.00;;;;;;;;;;5513349;26;21128;-71
2024/04/13 13:26:02;;;;;;;14.10;13.70;;;;;;;;;;5515162;26;20472;-71
2024/04/13 13:28:28;;;;;;;14.00;13.60;;;;;;;;;;5501455;26;21086;-71
2024/04/13 13:30:57;;;;;;;14.43;14.03;;;;;;;;;;5520145;25;20530;-71
2024/04/13 13:33:23;;;;;;;13.47;13.07;;;;;;;;;;5520185;25;20803;-71
2024/04/13 13:35:52;;;;;;;14.30;13.90;;;;;;;;;;5498565;26;20472;-71
2024/04/13 13:38:18;;;;;;;14.10;13.70;;;;;;;;;;5518594;26;20547;-71
2024/04/13 13:40:50;;;;;;;14.43;14.03;;;;;;;;;;5501330;26;20839;-71
2024/04/13 13:43:16;;;;;;;14.10;13.70;;;;;;;;;;5520018;26;20491;-71
2024/04/13 13:45:46;;;;;;;14.40;14.00;;;;;;;;;;5497365;26;20489;-71
2024/04/13 13:48:12;;;;;;;13.73;13.33;;;;;;;;;;5516314;26;20467;-71
2024/04/13 13:50:40;;;;;;;13.63;13.23;;;;;;;;;;5512762;26;20472;-71
2024/04/13 13:53:07;;;;;;;13.33;12.93;;;;;;;;;;5503075;26;20975;-71
2024/04/13 13:55:36;;;;;;;13.53;13.13;;;;;;;;;;5506278;26;20477;-71
2024/04/13 13:58:05;;;;;;;14.13;13.73;;;;;;;;;;5511850;26;20515;-71
2024/04/13 14:00:33;;;;;;;14.27;13.87;;;;;;;;;;5508864;25;20589;-71
2024/04/13 14:02:59;;;;;;;14.10;13.70;;;;;;;;;;5516993;26;20905;-72
2024/04/13 14:05:30;;;;;;;13.70;13.30;;;;;;;;;;5518826;26;20475;-72
2024/04/13 14:07:57;;;;;;;13.87;13.47;;;;;;;;;;5519370;26;21049;-72
2024/04/13 14:10:26;;;;;;;14.30;13.90;;;;;;;;;;5506647;25;21058;-72
2024/04/13 14:12:53;;;;;;;13.90;13.50;;;;;;;;;;5504626;25;20491;-72
2024/04/13 14:15:25;;;;;;;14.00;13.60;;;;;;;;;;5513548;25;20467;-72
2024/04/13 14:17:51;;;;;;;14.60;14.20;;;;;;;;;;5513460;26;20820;-72
2024/04/13 14:20:20;;;;;;;13.67;13.27;;;;;;;;;;5511790;26;20877;-72
2024/04/13 14:22:46;;;;;;;13.80;13.40;;;;;;;;;;5502314;26;20937;-72
2024/04/13 14:25:16;;;;;;;13.80;13.40;;;;;;;;;;5515017;25;20878;-72
2024/04/13 14:27:42;;;;;;;13.70;13.30;;;;;;;;;;5499403;25;21063;-72
2024/04/13 14:30:12;;;;;;;14.20;13.80;;;;;;;;;;5515382;26;20460;-72
2024/04/13 14:32:41;;;;;;;14.50;14.10;;;;;;;;;;5498356;26;20588;-72
2024/04/13 14:35:09;;;;;;;14.13;13.73;;;;;;;;;;5508041;26;20879;-72
2024/04/13 14:37:36;;;;;;;14.80;14.40;;;;;;;;;;5493335;26;20542;-72
2024/04/13 14:40:06;;;;;;;14.60;14.20;;;;;;;;;;5503985;26;20527;-72